createdAt,value
2019-05-29T00:00:09.892Z,0.00
2019-05-29T00:01:14.058Z,0.00
2019-05-29T00:02:10.086Z,0.00
2019-05-29T00:03:08.450Z,0.00
2019-05-29T00:04:08.442Z,0.00
2019-05-29T00:05:08.434Z,0.00
2019-05-29T00:06:08.416Z,0.00
2019-05-29T00:07:08.412Z,0.00
2019-05-29T00:08:08.404Z,0.00
2019-05-29T00:09:08.386Z,0.00
2019-05-29T00:10:08.961Z,0.00
2019-05-29T00:11:08.364Z,0.00
2019-05-29T00:12:11.358Z,0.00
2019-05-29T00:13:10.249Z,0.00
2019-05-29T00:14:20.742Z,0.00
2019-05-29T00:15:10.351Z,0.00
2019-05-29T00:16:08.372Z,0.00
2019-05-29T00:17:08.415Z,0.00
2019-05-29T00:18:08.369Z,0.00
2019-05-29T00:19:08.765Z,0.00
2019-05-29T00:20:08.371Z,0.00
2019-05-29T00:21:08.601Z,0.00
2019-05-29T00:22:08.285Z,0.00
2019-05-29T00:23:08.496Z,0.00
2019-05-29T00:24:08.351Z,0.00
2019-05-29T00:25:08.555Z,0.00
2019-05-29T00:26:08.341Z,0.00
2019-05-29T00:27:12.554Z,0.00
2019-05-29T00:28:09.176Z,0.00
2019-05-29T00:29:08.166Z,0.00
2019-05-29T00:30:08.802Z,0.00
2019-05-29T00:31:08.145Z,0.00
2019-05-29T00:32:08.884Z,0.00
2019-05-29T00:33:08.124Z,0.00
2019-05-29T00:34:08.946Z,0.00
2019-05-29T00:35:08.359Z,0.00
2019-05-29T00:36:08.255Z,0.00
2019-05-29T00:37:08.511Z,0.00
2019-05-29T00:38:08.462Z,0.00
2019-05-29T00:39:08.630Z,0.00
2019-05-29T00:40:08.918Z,0.00
2019-05-29T00:41:08.801Z,0.00
2019-05-29T00:42:08.942Z,0.00
2019-05-29T00:43:09.094Z,0.00
2019-05-29T00:44:09.067Z,0.00
2019-05-29T00:45:09.334Z,0.00
2019-05-29T00:46:07.984Z,0.00
2019-05-29T00:47:07.984Z,0.00
2019-05-29T00:48:07.968Z,0.00
2019-05-29T00:49:07.951Z,0.00
2019-05-29T00:50:08.121Z,0.00
2019-05-29T00:51:08.907Z,0.00
2019-05-29T00:52:08.122Z,0.00
2019-05-29T00:53:08.124Z,0.00
2019-05-29T00:54:08.218Z,0.00
2019-05-29T00:55:08.696Z,0.00
2019-05-29T00:56:08.520Z,0.00
2019-05-29T00:57:08.724Z,0.00
2019-05-29T00:58:08.784Z,0.00
2019-05-29T00:59:08.928Z,0.00
2019-05-29T01:00:08.953Z,0.00
2019-05-29T01:01:07.823Z,0.00
2019-05-29T01:02:07.811Z,0.00
2019-05-29T01:03:07.817Z,0.00
2019-05-29T01:04:07.789Z,0.00
2019-05-29T01:05:07.780Z,0.00
2019-05-29T01:06:07.767Z,0.00
2019-05-29T01:07:07.760Z,0.00
2019-05-29T01:08:07.756Z,0.00
2019-05-29T01:09:07.734Z,0.00
2019-05-29T01:10:07.724Z,0.00
2019-05-29T01:11:07.714Z,0.00
2019-05-29T01:12:07.709Z,0.00
2019-05-29T01:13:07.700Z,0.00
2019-05-29T01:14:07.680Z,0.00
2019-05-29T01:15:07.672Z,0.00
2019-05-29T01:16:07.661Z,0.00
2019-05-29T01:17:07.650Z,0.00
2019-05-29T01:18:07.648Z,0.00
2019-05-29T01:19:07.628Z,0.00
2019-05-29T01:20:07.616Z,0.00
2019-05-29T01:21:07.606Z,0.00
2019-05-29T01:22:07.595Z,0.00
2019-05-29T01:23:07.591Z,0.00
2019-05-29T01:24:07.576Z,0.00
2019-05-29T01:25:07.563Z,0.00
2019-05-29T01:26:07.553Z,0.00
2019-05-29T01:27:07.540Z,0.00
2019-05-29T01:28:07.542Z,0.00
2019-05-29T01:29:07.523Z,0.00
2019-05-29T01:30:07.509Z,0.00
2019-05-29T01:31:07.497Z,0.00
2019-05-29T01:32:07.488Z,0.00
2019-05-29T01:33:07.483Z,0.00
2019-05-29T01:34:07.463Z,0.00
2019-05-29T01:35:07.454Z,0.00
2019-05-29T01:36:07.446Z,0.00
2019-05-29T01:37:07.431Z,0.00
2019-05-29T01:38:07.430Z,0.00
2019-05-29T01:39:07.410Z,0.00
2019-05-29T01:40:19.242Z,0.00
2019-05-29T01:41:08.386Z,0.00
2019-05-29T01:42:07.379Z,0.00
2019-05-29T01:43:07.375Z,0.00
2019-05-29T01:44:07.356Z,0.00
2019-05-29T01:45:08.639Z,0.00
2019-05-29T01:46:07.336Z,0.00
2019-05-29T01:47:07.323Z,0.00
2019-05-29T01:48:07.326Z,0.00
2019-05-29T01:49:07.301Z,0.00
2019-05-29T01:50:07.291Z,0.00
2019-05-29T01:51:07.281Z,0.00
2019-05-29T01:52:07.271Z,0.00
2019-05-29T01:53:07.274Z,0.00
2019-05-29T01:54:07.249Z,0.00
2019-05-29T01:55:07.238Z,0.00
2019-05-29T01:56:07.227Z,0.00
2019-05-29T01:57:07.218Z,0.00
2019-05-29T01:58:07.214Z,0.00
2019-05-29T01:59:07.196Z,0.00
2019-05-29T02:00:07.184Z,0.00
2019-05-29T02:01:07.186Z,0.00
2019-05-29T02:02:07.162Z,0.00
2019-05-29T02:03:07.160Z,0.00
2019-05-29T02:04:07.144Z,0.00
2019-05-29T02:05:07.136Z,0.00
2019-05-29T02:06:07.119Z,0.00
2019-05-29T02:07:07.107Z,0.00
2019-05-29T02:08:07.119Z,0.00
2019-05-29T02:09:07.089Z,0.00
2019-05-29T02:10:07.077Z,0.00
2019-05-29T02:11:07.065Z,4.00
2019-05-29T02:12:07.055Z,4.00
2019-05-29T02:13:07.047Z,0.00
2019-05-29T02:14:07.041Z,0.00
2019-05-29T02:15:22.682Z,4.00
2019-05-29T02:16:08.010Z,4.00
2019-05-29T02:17:07.001Z,4.00
2019-05-29T02:18:06.996Z,4.00
2019-05-29T02:19:06.986Z,8.00
2019-05-29T02:20:06.966Z,4.00
2019-05-29T02:21:06.956Z,8.00
2019-05-29T02:22:06.947Z,4.00
2019-05-29T02:23:06.946Z,8.00
2019-05-29T02:24:06.933Z,8.00
2019-05-29T02:25:06.915Z,8.00
2019-05-29T02:26:06.901Z,8.00
2019-05-29T02:27:06.892Z,8.00
2019-05-29T02:28:06.884Z,8.00
2019-05-29T02:29:06.882Z,16.00
2019-05-29T02:30:06.860Z,12.00
2019-05-29T02:31:06.851Z,16.00
2019-05-29T02:32:06.838Z,16.00
2019-05-29T02:33:06.830Z,16.00
2019-05-29T02:34:07.603Z,20.00
2019-05-29T02:35:06.812Z,20.00
2019-05-29T02:36:06.797Z,28.00
2019-05-29T02:37:06.785Z,28.00
2019-05-29T02:38:06.785Z,32.00
2019-05-29T02:39:06.771Z,36.00
2019-05-29T02:40:06.754Z,40.00
2019-05-29T02:41:06.742Z,48.00
2019-05-29T02:42:06.732Z,48.00
2019-05-29T02:43:06.722Z,56.00
2019-05-29T02:44:06.719Z,60.00
2019-05-29T02:45:06.716Z,68.00
2019-05-29T02:46:06.687Z,72.00
2019-05-29T02:47:06.678Z,80.00
2019-05-29T02:48:06.668Z,88.00
2019-05-29T02:49:06.667Z,92.00
2019-05-29T02:50:06.643Z,92.00
2019-05-29T02:51:06.634Z,92.00
2019-05-29T02:52:06.623Z,92.00
2019-05-29T02:53:06.614Z,96.00
2019-05-29T02:54:06.608Z,96.00
2019-05-29T02:55:06.596Z,100.00
2019-05-29T02:56:06.579Z,108.00
2019-05-29T02:57:06.578Z,112.00
2019-05-29T02:58:06.566Z,116.00
2019-05-29T02:59:06.555Z,116.00
2019-05-29T03:00:06.544Z,120.00
2019-05-29T03:01:06.525Z,128.00
2019-05-29T03:02:06.518Z,132.00
2019-05-29T03:03:06.504Z,140.00
2019-05-29T03:04:06.501Z,156.00
2019-05-29T03:05:06.487Z,172.00
2019-05-29T03:06:06.482Z,184.00
2019-05-29T03:07:06.462Z,200.00
2019-05-29T03:08:06.447Z,212.00
2019-05-29T03:09:06.459Z,220.00
2019-05-29T03:10:06.428Z,228.00
2019-05-29T03:11:06.419Z,236.00
2019-05-29T03:12:06.407Z,244.00
2019-05-29T03:13:06.403Z,256.00
2019-05-29T03:14:06.394Z,268.00
2019-05-29T03:15:06.374Z,272.00
2019-05-29T03:16:11.526Z,280.00
2019-05-29T03:17:07.351Z,288.00
2019-05-29T03:18:06.343Z,300.00
2019-05-29T03:19:06.344Z,324.00
2019-05-29T03:20:06.336Z,352.00
2019-05-29T03:21:06.311Z,384.00
2019-05-29T03:22:06.299Z,424.00
2019-05-29T03:23:06.286Z,472.00
2019-05-29T03:24:06.302Z,520.00
2019-05-29T03:25:06.266Z,576.00
2019-05-29T03:26:06.260Z,628.00
2019-05-29T03:27:06.259Z,672.00
2019-05-29T03:28:06.234Z,708.00
2019-05-29T03:29:06.221Z,736.00
2019-05-29T03:30:06.257Z,756.00
2019-05-29T03:31:06.203Z,788.00
2019-05-29T03:32:13.370Z,932.00
2019-05-29T03:33:07.177Z,932.00
2019-05-29T03:34:06.184Z,860.00
2019-05-29T03:35:06.166Z,884.00
2019-05-29T03:36:06.162Z,916.00
2019-05-29T03:37:06.134Z,944.00
2019-05-29T03:38:06.133Z,964.00
2019-05-29T03:39:06.114Z,980.00
2019-05-29T03:40:06.118Z,1004.00
2019-05-29T03:41:06.091Z,1032.00
2019-05-29T03:42:06.079Z,1048.00
2019-05-29T03:43:06.070Z,1060.00
2019-05-29T03:44:10.118Z,1080.00
2019-05-29T03:45:06.058Z,1148.00
2019-05-29T03:46:06.084Z,1352.00
2019-05-29T03:47:06.028Z,1500.00
2019-05-29T03:48:06.039Z,1420.00
2019-05-29T03:49:06.009Z,4112.00
2019-05-29T03:50:06.001Z,4352.00
2019-05-29T03:51:05.986Z,2332.00
2019-05-29T03:52:05.980Z,1336.00
2019-05-29T03:53:05.964Z,1260.00
2019-05-29T03:54:05.953Z,1256.00
2019-05-29T03:55:05.949Z,1216.00
2019-05-29T03:56:06.719Z,1196.00
2019-05-29T03:57:05.925Z,1208.00
2019-05-29T03:58:05.906Z,1232.00
2019-05-29T03:59:05.894Z,1260.00
2019-05-29T04:00:05.899Z,1284.00
2019-05-29T04:01:05.876Z,1352.00
2019-05-29T04:02:05.861Z,1776.00
2019-05-29T04:03:05.854Z,2488.00
2019-05-29T04:04:05.839Z,2016.00
2019-05-29T04:05:05.840Z,1992.00
2019-05-29T04:06:05.819Z,1984.00
2019-05-29T04:07:05.809Z,1836.00
2019-05-29T04:08:05.795Z,1728.00
2019-05-29T04:09:05.784Z,1708.00
2019-05-29T04:10:05.789Z,1692.00
2019-05-29T04:11:05.780Z,1684.00
2019-05-29T04:12:05.756Z,1676.00
2019-05-29T04:13:05.741Z,1748.00
2019-05-29T04:14:05.729Z,1700.00
2019-05-29T04:15:05.728Z,1584.00
2019-05-29T04:16:05.710Z,1544.00
2019-05-29T04:17:05.697Z,1580.00
2019-05-29T04:18:05.684Z,1688.00
2019-05-29T04:19:05.675Z,1692.00
2019-05-29T04:20:05.675Z,1592.00
2019-05-29T04:21:05.652Z,1604.00
2019-05-29T04:22:05.641Z,1640.00
2019-05-29T04:23:05.634Z,1700.00
2019-05-29T04:24:05.619Z,1752.00
2019-05-29T04:25:05.616Z,1812.00
2019-05-29T04:26:05.616Z,1840.00
2019-05-29T04:27:05.585Z,1844.00
2019-05-29T04:28:05.574Z,1848.00
2019-05-29T04:29:05.565Z,1872.00
2019-05-29T04:30:05.588Z,1904.00
2019-05-29T04:31:05.543Z,2028.00
2019-05-29T04:32:05.534Z,2116.00
2019-05-29T04:33:05.520Z,2280.00
2019-05-29T04:34:05.512Z,2776.00
2019-05-29T04:35:05.497Z,2928.00
2019-05-29T04:36:05.501Z,3220.00
2019-05-29T04:37:07.402Z,3164.00
2019-05-29T04:38:05.471Z,3096.00
2019-05-29T04:39:05.460Z,3072.00
2019-05-29T04:40:05.443Z,3108.00
2019-05-29T04:41:05.450Z,3488.00
2019-05-29T04:42:05.422Z,3324.00
2019-05-29T04:43:05.410Z,3056.00
2019-05-29T04:44:05.399Z,2944.00
2019-05-29T04:45:05.402Z,2884.00
2019-05-29T04:46:05.383Z,2896.00
2019-05-29T04:47:11.171Z,2904.00
2019-05-29T04:48:06.354Z,2732.00
2019-05-29T04:49:05.354Z,2576.00
2019-05-29T04:50:05.334Z,2444.00
2019-05-29T04:51:05.331Z,2400.00
2019-05-29T04:52:05.313Z,2408.00
2019-05-29T04:53:05.315Z,2464.00
2019-05-29T04:54:05.293Z,2568.00
2019-05-29T04:55:05.278Z,2724.00
2019-05-29T04:56:05.277Z,2848.00
2019-05-29T04:57:05.259Z,2928.00
2019-05-29T04:58:05.251Z,2996.00
2019-05-29T04:59:05.234Z,3060.00
2019-05-29T05:00:05.225Z,3052.00
2019-05-29T05:01:05.225Z,3032.00
2019-05-29T05:02:05.205Z,3028.00
2019-05-29T05:03:05.192Z,3036.00
2019-05-29T05:04:05.180Z,3092.00
2019-05-29T05:05:05.171Z,3140.00
2019-05-29T05:06:05.167Z,3212.00
2019-05-29T05:07:05.147Z,3300.00
2019-05-29T05:08:05.136Z,3452.00
2019-05-29T05:09:05.125Z,3452.00
2019-05-29T05:10:05.115Z,3500.00
2019-05-29T05:11:05.113Z,3572.00
2019-05-29T05:12:05.092Z,3704.00
2019-05-29T05:13:05.085Z,3936.00
2019-05-29T05:14:05.071Z,4264.00
2019-05-29T05:15:05.062Z,4596.00
2019-05-29T05:16:05.059Z,5156.00
2019-05-29T05:17:05.039Z,6096.00
2019-05-29T05:18:05.027Z,7928.00
2019-05-29T05:19:05.017Z,9996.00
2019-05-29T05:20:05.015Z,10592.00
2019-05-29T05:21:05.008Z,11828.00
2019-05-29T05:22:04.987Z,14280.00
2019-05-29T05:23:04.977Z,18528.00
2019-05-29T05:24:04.966Z,35072.00
2019-05-29T05:25:04.956Z,20864.00
2019-05-29T05:26:04.954Z,17344.00
2019-05-29T05:27:04.930Z,23360.00
2019-05-29T05:28:04.919Z,22336.00
2019-05-29T05:29:04.908Z,50016.00
2019-05-29T05:30:04.897Z,57760.00
2019-05-29T05:31:04.897Z,58368.00
2019-05-29T05:32:04.876Z,47776.00
2019-05-29T05:33:04.864Z,55360.00
2019-05-29T05:34:04.855Z,55808.00
2019-05-29T05:35:04.849Z,58016.00
2019-05-29T05:36:04.843Z,59968.00
2019-05-29T05:37:04.825Z,51712.00
2019-05-29T05:38:04.813Z,50816.00
2019-05-29T05:39:04.799Z,55008.00
2019-05-29T05:40:04.790Z,63104.00
2019-05-29T05:41:04.812Z,65312.00
2019-05-29T05:42:04.771Z,70816.00
2019-05-29T05:43:04.762Z,75136.00
2019-05-29T05:44:04.750Z,81600.00
2019-05-29T05:45:04.736Z,67264.00
2019-05-29T05:46:04.726Z,70240.00
2019-05-29T05:47:04.722Z,62656.00
2019-05-29T05:48:04.706Z,57376.00
2019-05-29T05:49:04.695Z,69568.00
2019-05-29T05:50:04.692Z,73216.00
2019-05-29T05:51:04.674Z,75712.00
2019-05-29T05:52:04.670Z,77216.00
2019-05-29T05:53:04.649Z,85184.00
2019-05-29T05:54:04.643Z,77984.00
2019-05-29T05:55:04.629Z,87104.00
2019-05-29T05:56:04.617Z,82496.00
2019-05-29T05:57:04.616Z,84640.00
2019-05-29T05:58:04.605Z,82016.00
2019-05-29T05:59:04.588Z,82720.00
2019-05-29T06:00:04.574Z,85792.00
2019-05-29T06:01:04.566Z,84064.00
2019-05-29T06:02:04.565Z,81408.00
2019-05-29T06:03:04.545Z,86240.00
2019-05-29T06:04:04.534Z,84416.00
2019-05-29T06:05:04.528Z,93696.00
2019-05-29T06:06:04.513Z,65632.00
2019-05-29T06:07:04.511Z,40704.00
2019-05-29T06:08:04.495Z,30784.00
2019-05-29T06:09:04.482Z,28704.00
2019-05-29T06:10:04.471Z,39552.00
2019-05-29T06:11:04.461Z,34624.00
2019-05-29T06:12:04.460Z,22112.00
2019-05-29T06:13:04.441Z,21088.00
2019-05-29T06:14:04.430Z,18784.00
2019-05-29T06:15:04.419Z,21568.00
2019-05-29T06:16:04.407Z,18976.00
2019-05-29T06:17:04.408Z,18496.00
2019-05-29T06:18:19.973Z,15904.00
2019-05-29T06:19:05.374Z,14120.00
2019-05-29T06:20:04.365Z,13184.00
2019-05-29T06:21:04.381Z,12584.00
2019-05-29T06:22:04.353Z,11936.00
2019-05-29T06:23:04.334Z,11308.00
2019-05-29T06:24:04.323Z,10808.00
2019-05-29T06:25:04.327Z,10604.00
2019-05-29T06:26:04.302Z,10672.00
2019-05-29T06:27:04.298Z,11320.00
2019-05-29T06:28:04.299Z,12264.00
2019-05-29T06:29:04.275Z,13980.00
2019-05-29T06:30:04.264Z,18400.00
2019-05-29T06:31:04.252Z,18080.00
2019-05-29T06:32:04.270Z,21152.00
2019-05-29T06:33:04.226Z,25376.00
2019-05-29T06:34:04.215Z,27488.00
2019-05-29T06:35:04.207Z,26784.00
2019-05-29T06:36:04.198Z,27008.00
2019-05-29T06:37:04.193Z,92480.00
2019-05-29T06:38:04.171Z,94048.00
2019-05-29T06:39:04.160Z,93440.00
2019-05-29T06:40:04.150Z,96288.00
2019-05-29T06:41:04.139Z,94112.00
2019-05-29T06:42:04.138Z,90560.00
2019-05-29T06:43:04.118Z,84064.00
2019-05-29T06:44:04.111Z,62048.00
2019-05-29T06:45:04.427Z,31968.00
2019-05-29T06:46:04.084Z,16096.00
2019-05-29T06:47:04.084Z,13840.00
2019-05-29T06:48:04.072Z,14296.00
2019-05-29T06:49:04.059Z,13184.00
2019-05-29T06:50:04.042Z,13364.00
2019-05-29T06:51:04.031Z,13140.00
2019-05-29T06:52:04.029Z,12448.00
2019-05-29T06:53:04.009Z,12348.00
2019-05-29T06:54:04.002Z,12092.00
2019-05-29T06:55:03.987Z,12276.00
2019-05-29T06:56:04.093Z,11460.00
2019-05-29T06:57:03.977Z,11852.00
2019-05-29T06:58:03.957Z,11012.00
2019-05-29T06:59:03.946Z,10828.00
2019-05-29T07:00:03.942Z,11516.00
2019-05-29T07:01:03.924Z,11568.00
2019-05-29T07:02:03.946Z,10596.00
2019-05-29T07:03:03.905Z,10592.00
2019-05-29T07:04:12.044Z,10276.00
2019-05-29T07:05:04.879Z,10708.00
2019-05-29T07:06:03.907Z,10656.00
2019-05-29T07:07:03.858Z,9780.00
2019-05-29T07:08:18.098Z,10528.00
2019-05-29T07:09:04.838Z,10160.00
2019-05-29T07:10:03.826Z,9996.00
2019-05-29T07:11:03.822Z,10240.00
2019-05-29T07:12:03.962Z,9632.00
2019-05-29T07:13:03.802Z,9364.00
2019-05-29T07:14:03.785Z,9592.00
2019-05-29T07:15:03.773Z,10256.00
2019-05-29T07:16:03.761Z,10228.00
2019-05-29T07:17:03.771Z,10124.00
2019-05-29T07:18:03.746Z,10292.00
2019-05-29T07:19:26.610Z,9956.00
2019-05-29T07:20:04.721Z,9136.00
2019-05-29T07:21:03.709Z,9884.00
2019-05-29T07:22:03.699Z,9512.00
2019-05-29T07:23:03.701Z,9104.00
2019-05-29T07:24:03.677Z,9304.00
2019-05-29T07:25:03.669Z,9152.00
2019-05-29T07:26:03.653Z,9228.00
2019-05-29T07:27:03.646Z,9224.00
2019-05-29T07:28:03.640Z,9400.00
2019-05-29T07:29:08.463Z,9404.00
2019-05-29T07:30:04.609Z,9408.00
2019-05-29T07:31:04.072Z,9572.00
2019-05-29T07:32:03.591Z,9676.00
2019-05-29T07:33:03.594Z,9388.00
2019-05-29T07:34:03.566Z,9744.00
2019-05-29T07:35:04.649Z,9324.00
2019-05-29T07:36:03.546Z,9340.00
2019-05-29T07:37:03.545Z,9184.00
2019-05-29T07:38:03.539Z,9120.00
2019-05-29T07:39:03.980Z,9276.00
2019-05-29T07:40:03.502Z,9208.00
2019-05-29T07:41:03.489Z,9048.00
2019-05-29T07:42:03.480Z,9176.00
2019-05-29T07:43:03.477Z,9292.00
2019-05-29T07:44:03.456Z,9172.00
2019-05-29T07:45:03.471Z,9064.00
2019-05-29T07:46:03.440Z,9452.00
2019-05-29T07:47:03.424Z,8896.00
2019-05-29T07:48:03.426Z,9120.00
2019-05-29T07:49:03.422Z,9184.00
2019-05-29T07:50:03.400Z,9504.00
2019-05-29T07:51:06.900Z,9712.00
2019-05-29T07:52:03.387Z,9680.00
2019-05-29T07:53:03.370Z,9436.00
2019-05-29T07:54:03.346Z,9248.00
2019-05-29T07:55:03.338Z,9680.00
2019-05-29T07:56:03.333Z,9588.00
2019-05-29T07:57:03.315Z,9608.00
2019-05-29T07:58:03.317Z,9684.00
2019-05-29T07:59:03.782Z,9592.00
2019-05-29T08:00:03.286Z,8812.00
2019-05-29T08:01:12.869Z,8140.00
2019-05-29T08:02:04.267Z,8780.00
2019-05-29T08:03:03.262Z,8504.00
2019-05-29T08:04:03.241Z,8588.00
2019-05-29T08:05:03.241Z,8452.00
2019-05-29T08:06:03.317Z,7964.00
2019-05-29T08:07:03.207Z,6816.00
2019-05-29T08:08:03.208Z,6708.00
2019-05-29T08:09:03.184Z,6372.00
2019-05-29T08:10:03.185Z,6312.00
2019-05-29T08:11:03.165Z,6476.00
2019-05-29T08:12:03.155Z,6400.00
2019-05-29T08:13:03.171Z,5944.00
2019-05-29T08:14:03.132Z,6124.00
2019-05-29T08:15:03.128Z,7620.00
2019-05-29T08:16:03.480Z,7932.00
2019-05-29T08:17:03.100Z,6852.00
2019-05-29T08:18:03.114Z,8164.00
2019-05-29T08:19:03.077Z,8096.00
2019-05-29T08:20:07.392Z,8292.00
2019-05-29T08:21:03.055Z,8344.00
2019-05-29T08:22:03.050Z,6688.00
2019-05-29T08:23:03.033Z,6484.00
2019-05-29T08:24:03.030Z,6296.00
2019-05-29T08:25:03.019Z,6264.00
2019-05-29T08:26:03.007Z,6988.00
2019-05-29T08:27:02.990Z,6196.00
2019-05-29T08:28:02.978Z,6540.00
2019-05-29T08:29:02.977Z,8660.00
2019-05-29T08:30:02.985Z,8760.00
2019-05-29T08:31:02.951Z,8804.00
2019-05-29T08:32:02.937Z,7736.00
2019-05-29T08:33:02.923Z,8700.00
2019-05-29T08:34:02.926Z,7752.00
2019-05-29T08:35:02.909Z,6812.00
2019-05-29T08:36:02.892Z,6604.00
2019-05-29T08:37:07.181Z,6880.00
2019-05-29T08:38:02.873Z,7400.00
2019-05-29T08:39:02.866Z,5908.00
2019-05-29T08:40:02.849Z,5872.00
2019-05-29T08:41:05.827Z,5992.00
2019-05-29T08:42:21.927Z,6144.00
2019-05-29T08:43:03.816Z,6408.00
2019-05-29T08:44:02.813Z,8660.00
2019-05-29T08:45:02.794Z,7048.00
2019-05-29T08:46:02.784Z,6752.00
2019-05-29T08:47:10.238Z,6680.00
2019-05-29T08:48:03.761Z,6604.00
2019-05-29T08:49:02.885Z,6104.00
2019-05-29T08:50:17.407Z,6112.00
2019-05-29T08:51:03.726Z,5776.00
2019-05-29T08:52:11.564Z,5992.00
2019-05-29T08:53:03.706Z,7304.00
2019-05-29T08:54:02.705Z,7840.00
2019-05-29T08:55:02.687Z,7796.00
2019-05-29T08:56:02.770Z,5856.00
2019-05-29T08:57:02.670Z,5900.00
2019-05-29T08:58:02.654Z,5696.00
2019-05-29T08:59:02.652Z,6616.00
2019-05-29T09:00:02.630Z,5716.00
2019-05-29T09:01:02.621Z,5732.00
2019-05-29T09:02:02.617Z,5872.00
2019-05-29T09:03:02.598Z,6068.00
2019-05-29T09:04:02.597Z,5884.00
2019-05-29T09:05:03.081Z,5612.00
2019-05-29T09:06:08.919Z,5300.00
2019-05-29T09:07:03.557Z,5108.00
2019-05-29T09:08:02.552Z,5312.00
2019-05-29T09:09:02.556Z,6908.00
2019-05-29T09:10:02.532Z,6780.00
2019-05-29T09:11:02.524Z,6816.00
2019-05-29T09:12:02.511Z,6676.00
2019-05-29T09:13:05.064Z,6756.00
2019-05-29T09:14:02.488Z,6812.00
2019-05-29T09:15:02.555Z,6872.00
2019-05-29T09:16:02.456Z,7000.00
2019-05-29T09:17:02.445Z,7264.00
2019-05-29T09:18:02.434Z,7608.00
2019-05-29T09:19:02.436Z,7520.00
2019-05-29T09:20:02.419Z,7820.00
2019-05-29T09:21:03.929Z,7612.00
2019-05-29T09:22:02.394Z,7424.00
2019-05-29T09:23:02.380Z,5720.00
2019-05-29T09:24:02.383Z,7192.00
2019-05-29T09:25:02.359Z,6236.00
2019-05-29T09:26:14.127Z,5460.00
2019-05-29T09:27:03.344Z,7916.00
2019-05-29T09:28:02.390Z,7780.00
2019-05-29T09:29:02.361Z,5076.00
2019-05-29T09:30:02.311Z,4660.00
2019-05-29T09:31:02.294Z,4392.00
2019-05-29T09:32:02.284Z,4288.00
2019-05-29T09:33:02.278Z,4088.00
2019-05-29T09:34:02.262Z,4316.00
2019-05-29T09:35:02.263Z,4344.00
2019-05-29T09:36:02.246Z,4372.00
2019-05-29T09:37:02.294Z,4548.00
2019-05-29T09:38:02.218Z,7320.00
2019-05-29T09:39:02.207Z,7072.00
2019-05-29T09:40:02.208Z,5928.00
2019-05-29T09:41:02.184Z,7808.00
2019-05-29T09:42:02.179Z,7840.00
2019-05-29T09:43:02.166Z,7880.00
2019-05-29T09:44:02.156Z,7496.00
2019-05-29T09:45:02.158Z,6592.00
2019-05-29T09:46:02.450Z,8388.00
2019-05-29T09:47:02.125Z,8224.00
2019-05-29T09:48:02.437Z,7704.00
2019-05-29T09:49:02.177Z,7644.00
2019-05-29T09:50:02.097Z,7392.00
2019-05-29T09:51:20.216Z,6972.00
2019-05-29T09:52:04.064Z,7444.00
2019-05-29T09:53:03.760Z,7328.00
2019-05-29T09:54:03.477Z,7420.00
2019-05-29T09:55:02.558Z,7532.00
2019-05-29T09:56:03.016Z,7512.00
2019-05-29T09:57:02.819Z,7596.00
2019-05-29T09:58:02.729Z,7764.00
2019-05-29T09:59:03.758Z,8052.00
2019-05-29T10:00:02.662Z,5592.00
2019-05-29T10:01:19.867Z,6696.00
2019-05-29T10:02:05.958Z,8420.00
2019-05-29T10:03:03.908Z,8500.00
2019-05-29T10:04:05.824Z,8476.00
2019-05-29T10:05:02.923Z,8052.00
2019-05-29T10:06:01.914Z,6292.00
2019-05-29T10:07:02.279Z,5660.00
2019-05-29T10:08:02.401Z,5452.00
2019-05-29T10:09:01.913Z,5428.00
2019-05-29T10:10:03.691Z,7844.00
2019-05-29T10:11:08.451Z,4564.00
2019-05-29T10:12:06.377Z,4492.00
2019-05-29T10:13:02.820Z,4296.00
2019-05-29T10:14:02.781Z,4276.00
2019-05-29T10:15:02.688Z,5440.00
2019-05-29T10:16:02.850Z,4596.00
2019-05-29T10:17:07.440Z,7204.00
2019-05-29T10:18:06.860Z,7292.00
2019-05-29T10:19:03.254Z,7136.00
2019-05-29T10:20:03.187Z,7232.00
2019-05-29T10:21:03.151Z,7576.00
2019-05-29T10:22:03.615Z,5328.00
2019-05-29T10:23:03.049Z,7500.00
2019-05-29T10:24:02.314Z,5320.00
2019-05-29T10:25:02.020Z,7008.00
2019-05-29T10:26:02.829Z,6600.00
2019-05-29T10:27:03.495Z,7080.00
2019-05-29T10:28:05.157Z,7356.00
2019-05-29T10:29:08.274Z,7104.00
2019-05-29T10:30:02.667Z,7436.00
2019-05-29T10:31:03.773Z,7300.00
2019-05-29T10:32:01.636Z,7216.00
2019-05-29T10:33:01.623Z,7064.00
2019-05-29T10:34:01.608Z,6804.00
2019-05-29T10:35:01.622Z,6640.00
2019-05-29T10:36:03.983Z,6420.00
2019-05-29T10:37:01.576Z,6388.00
2019-05-29T10:38:01.565Z,6320.00
2019-05-29T10:39:01.671Z,6396.00
2019-05-29T10:40:01.553Z,5376.00
2019-05-29T10:41:06.601Z,6468.00
2019-05-29T10:42:02.524Z,6320.00
2019-05-29T10:43:01.511Z,6308.00
2019-05-29T10:44:01.499Z,6636.00
2019-05-29T10:45:01.494Z,5108.00
2019-05-29T10:46:01.490Z,3932.00
2019-05-29T10:47:01.476Z,3724.00
2019-05-29T10:48:01.457Z,3448.00
2019-05-29T10:49:04.603Z,3532.00
2019-05-29T10:50:01.566Z,3452.00
2019-05-29T10:51:01.433Z,3420.00
2019-05-29T10:52:14.501Z,3356.00
2019-05-29T10:53:02.407Z,3692.00
2019-05-29T10:54:01.436Z,6396.00
2019-05-29T10:55:01.381Z,6296.00
2019-05-29T10:56:01.377Z,6288.00
2019-05-29T10:57:01.360Z,6300.00
2019-05-29T10:58:01.349Z,6620.00
2019-05-29T10:59:01.338Z,6584.00
2019-05-29T11:00:01.327Z,6604.00
2019-05-29T11:01:01.325Z,6632.00
2019-05-29T11:02:01.303Z,3792.00
2019-05-29T11:03:01.295Z,3696.00
2019-05-29T11:04:01.282Z,3592.00
2019-05-29T11:05:01.280Z,4420.00
2019-05-29T11:06:01.267Z,4628.00
2019-05-29T11:07:01.250Z,3840.00
2019-05-29T11:08:01.242Z,6120.00
2019-05-29T11:09:01.228Z,6184.00
2019-05-29T11:10:01.217Z,6176.00
2019-05-29T11:11:01.213Z,5976.00
2019-05-29T11:12:01.194Z,6244.00
2019-05-29T11:13:01.187Z,6288.00
2019-05-29T11:14:01.179Z,6208.00
2019-05-29T11:15:01.177Z,6104.00
2019-05-29T11:16:01.163Z,6072.00
2019-05-29T11:17:01.141Z,6020.00
2019-05-29T11:18:01.133Z,6028.00
2019-05-29T11:19:01.121Z,6092.00
2019-05-29T11:20:01.152Z,6052.00
2019-05-29T11:21:01.104Z,6220.00
2019-05-29T11:22:22.552Z,6304.00
2019-05-29T11:23:02.078Z,6380.00
2019-05-29T11:24:01.064Z,6428.00
2019-05-29T11:25:21.137Z,5412.00
2019-05-29T11:26:02.052Z,4584.00
2019-05-29T11:27:01.032Z,5188.00
2019-05-29T11:28:01.021Z,3688.00
2019-05-29T11:29:01.015Z,3760.00
2019-05-29T11:30:01.004Z,6072.00
2019-05-29T11:31:06.023Z,3728.00
2019-05-29T11:32:01.982Z,2956.00
2019-05-29T11:33:01.486Z,3504.00
2019-05-29T11:34:00.960Z,5912.00
2019-05-29T11:35:02.250Z,5624.00
2019-05-29T11:36:12.415Z,5860.00
2019-05-29T11:37:02.470Z,5992.00
2019-05-29T11:38:00.916Z,6000.00
2019-05-29T11:39:05.590Z,6180.00
2019-05-29T11:40:03.235Z,6248.00
2019-05-29T11:41:23.613Z,5852.00
2019-05-29T11:42:03.025Z,3500.00
2019-05-29T11:43:00.857Z,4096.00
2019-05-29T11:44:00.845Z,4060.00
2019-05-29T11:45:00.837Z,3580.00
2019-05-29T11:46:01.962Z,4908.00
2019-05-29T11:47:02.388Z,6532.00
2019-05-29T11:48:01.628Z,4480.00
2019-05-29T11:49:00.791Z,4444.00
2019-05-29T11:50:15.400Z,4156.00
2019-05-29T11:51:02.461Z,6856.00
2019-05-29T11:52:21.697Z,6856.00
2019-05-29T11:53:02.671Z,6928.00
2019-05-29T11:54:02.340Z,6848.00
2019-05-29T11:55:04.518Z,6804.00
2019-05-29T11:56:02.154Z,6896.00
2019-05-29T11:57:00.711Z,4148.00
2019-05-29T11:58:01.946Z,3612.00
2019-05-29T11:59:00.684Z,3660.00
2019-05-29T12:00:09.564Z,6052.00
2019-05-29T12:01:01.659Z,5660.00
2019-05-29T12:02:03.192Z,3792.00
2019-05-29T12:03:01.691Z,3776.00
2019-05-29T12:04:24.115Z,4304.00
2019-05-29T12:05:03.846Z,6420.00
2019-05-29T12:06:03.083Z,3624.00
2019-05-29T12:07:01.586Z,3548.00
2019-05-29T12:08:01.852Z,3536.00
2019-05-29T12:09:01.863Z,3468.00
2019-05-29T12:10:04.255Z,3504.00
2019-05-29T12:11:01.573Z,3576.00
2019-05-29T12:12:02.030Z,3644.00
2019-05-29T12:13:01.721Z,3628.00
2019-05-29T12:14:02.263Z,3548.00
2019-05-29T12:15:10.906Z,3616.00
2019-05-29T12:16:01.866Z,3280.00
2019-05-29T12:17:00.748Z,3332.00
2019-05-29T12:18:19.959Z,3424.00